Time;durP1;ratioP1;P1;durP2;ratioP2;P2;SDS_P1;SDS_P2;PMS_P1;PMS_P2;Temp;Humidity;BMP_temperature;BMP_pressure;BME280_temperature;BME280_humidity;BME280_pressure;Samples;Min_cycle;Max_cycle;Signal;HPM_P1;HPM_P2
2021/09/14 00:02:16;;;;;;;15.60;7.67;;;;;;;13.23;71.91;100555.70;1652401;87;21210;-59
2021/09/14 00:04:50;;;;;;;25.45;9.43;;;;;;;13.21;71.92;100549.27;1650802;87;21230;-59
2021/09/14 00:07:24;;;;;;;23.77;8.58;;;;;;;13.19;71.96;100553.01;1642677;86;21169;-59
2021/09/14 00:09:57;;;;;;;24.67;8.40;;;;;;;13.15;71.94;100550.34;1652311;87;21179;-60
2021/09/14 00:12:30;;;;;;;13.80;6.80;;;;;;;13.08;72.09;100553.20;1652269;87;21368;-59
2021/09/14 00:15:04;;;;;;;17.50;6.97;;;;;;;13.02;72.10;100554.57;1644273;87;21661;-61
2021/09/14 00:17:38;;;;;;;22.77;7.92;;;;;;;12.96;72.24;100555.16;1650780;87;21170;-59
2021/09/14 00:20:13;;;;;;;;;;;;;;;12.92;72.40;100550.34;1654410;87;21176;-59
2021/09/14 00:22:45;;;;;;;16.90;7.33;;;;;;;12.87;72.55;100548.14;1643156;87;20566;-59
2021/09/14 00:25:18;;;;;;;17.80;8.00;;;;;;;12.81;72.75;100551.33;1640169;87;21278;-59
2021/09/14 00:27:51;;;;;;;18.73;8.13;;;;;;;12.78;72.96;100552.92;1639824;87;21219;-59
2021/09/14 00:30:24;;;;;;;24.63;12.90;;;;;;;12.75;73.08;100546.66;1640242;87;21282;-59
2021/09/14 00:32:57;;;;;;;22.52;9.20;;;;;;;12.71;73.13;100540.84;1640219;87;21389;-59
2021/09/14 00:35:30;;;;;;;18.05;8.93;;;;;;;12.67;73.34;100542.11;1640178;87;21236;-59
2021/09/14 00:38:04;;;;;;;16.57;7.80;;;;;;;12.67;73.57;100547.84;1640053;87;21334;-59
2021/09/14 00:40:37;;;;;;;19.35;7.33;;;;;;;12.66;73.72;100541.76;1639809;87;21171;-59
2021/09/14 00:43:12;;;;;;;18.32;7.60;;;;;;;12.65;73.60;100539.28;1639982;87;21228;-59
2021/09/14 00:45:45;;;;;;;15.83;7.08;;;;;;;12.63;73.59;100538.60;1639735;87;21223;-59
2021/09/14 00:48:19;;;;;;;12.65;5.75;;;;;;;12.59;73.50;100538.05;1639873;87;21191;-60
2021/09/14 00:50:52;;;;;;;20.88;6.92;;;;;;;12.56;73.44;100537.52;1639471;87;21306;-60
2021/09/14 00:53:27;;;;;;;11.08;6.70;;;;;;;12.53;73.46;100544.36;1639697;87;21290;-60
2021/09/14 00:56:01;;;;;;;24.15;10.75;;;;;;;12.50;73.48;100549.41;1639995;87;21291;-60
2021/09/14 00:58:34;;;;;;;28.30;11.50;;;;;;;12.48;73.58;100546.57;1639772;87;21310;-60
2021/09/14 01:01:07;;;;;;;24.80;10.63;;;;;;;12.51;74.13;100541.88;1638981;87;21219;-59
2021/09/14 01:03:41;;;;;;;19.37;7.95;;;;;;;12.51;74.13;100541.88;1638783;87;21192;-59
2021/09/14 01:06:14;;;;;;;19.15;7.17;;;;;;;12.51;73.98;100542.36;1638231;87;21219;-60
2021/09/14 01:08:48;;;;;;;18.80;6.90;;;;;;;12.50;73.99;100532.34;1637948;87;21175;-60
2021/09/14 01:11:23;;;;;;;15.30;7.55;;;;;;;12.47;73.98;100528.67;1638290;87;21176;-60
2021/09/14 01:14:03;;;;;;;;;;;;;;;12.46;74.09;100529.66;1640136;87;21231;-59
2021/09/14 01:16:38;;;;;;;18.65;9.00;;;;;;;12.45;74.12;100531.92;1638873;87;20157;-59
2021/09/14 01:19:12;;;;;;;28.02;11.57;;;;;;;12.39;74.20;100531.19;1637934;87;21179;-59
2021/09/14 01:21:45;;;;;;;21.45;9.75;;;;;;;12.36;74.27;100530.63;1638837;87;21349;-59
2021/09/14 01:24:18;;;;;;;21.75;8.68;;;;;;;12.35;74.49;100527.65;1638356;87;21379;-59
2021/09/14 01:27:00;;;;;;;18.55;7.03;;;;;;;12.36;74.70;100528.00;1637613;87;21219;-60
2021/09/14 01:32:26;;;;;;;14.93;7.15;;;;;;;12.35;74.69;100523.70;1637837;87;21160;-59
2021/09/14 01:35:13;;;;;;;18.20;7.67;;;;;;;12.34;74.73;100525.53;1638754;87;21219;-59
2021/09/14 01:37:48;;;;;;;15.45;7.53;;;;;;;12.35;74.95;100534.21;1640066;87;21286;-59
2021/09/14 01:40:22;;;;;;;16.42;7.50;;;;;;;12.36;75.12;100536.72;1616506;87;21310;-59
2021/09/14 01:42:56;;;;;;;20.08;9.13;;;;;;;12.38;75.27;100528.69;1639908;87;21187;-58
2021/09/14 01:45:30;;;;;;;21.65;8.10;;;;;;;12.40;75.26;100534.63;1617251;87;21318;-59
2021/09/14 01:48:04;;;;;;;23.38;8.93;;;;;;;12.39;75.22;100532.98;1639997;87;21176;-59
2021/09/14 01:50:37;;;;;;;17.82;8.30;;;;;;;12.37;75.28;100534.92;1639090;87;21293;-58
2021/09/14 01:53:10;;;;;;;18.15;8.33;;;;;;;12.35;75.48;100533.73;1639848;87;21171;-58
2021/09/14 01:55:45;;;;;;;20.32;8.95;;;;;;;12.35;75.55;100531.59;1638887;87;21314;-58
2021/09/14 01:58:19;;;;;;;27.67;10.18;;;;;;;12.34;75.63;100521.59;1639897;87;21322;-59
2021/09/14 02:01:10;;;;;;;24.37;9.50;;;;;;;12.35;75.77;100519.77;1639256;87;21351;-60
2021/09/14 02:03:36;;;;;;;25.80;10.48;;;;;;;12.34;75.81;100526.02;1635358;87;21215;-60
2021/09/14 02:59:38;;;;;;;19.45;9.50;;;;;;;12.11;77.81;100555.17;1652160;87;21219;-58
2021/09/14 03:02:12;;;;;;;18.87;9.50;;;;;;;12.11;77.83;100551.23;1643394;87;21323;-58
2021/09/14 03:04:45;;;;;;;15.58;8.93;;;;;;;12.11;77.90;100556.95;1652263;87;21316;-58
2021/09/14 03:07:19;;;;;;;18.00;9.45;;;;;;;12.10;77.94;100552.22;1650838;87;21789;-58
2021/09/14 03:09:53;;;;;;;21.45;9.30;;;;;;;12.09;78.00;100563.67;1644246;87;21340;-58
2021/09/14 03:12:26;;;;;;;;;;;;;;;12.08;78.07;100558.06;1653144;87;21171;-59
2021/09/14 03:15:00;;;;;;;18.95;8.83;;;;;;;12.07;78.21;100558.21;1652343;87;20208;-58
2021/09/14 03:17:34;;;;;;;30.17;9.85;;;;;;;12.08;78.35;100563.82;1650796;87;21326;-58
2021/09/14 03:20:09;;;;;;;25.08;11.20;;;;;;;12.13;78.47;100563.73;1644393;87;21816;-58
2021/09/14 03:22:43;;;;;;;22.87;11.08;;;;;;;12.21;78.45;100568.77;1651118;87;21820;-59
2021/09/14 03:25:17;;;;;;;22.17;10.35;;;;;;;12.27;78.30;100564.29;1647369;86;21210;-59
2021/09/14 03:27:50;;;;;;;28.85;11.73;;;;;;;12.35;78.14;100567.03;1638408;87;21321;-58
2021/09/14 03:30:23;;;;;;;20.65;12.05;;;;;;;12.42;77.95;100567.65;1639743;87;21282;-59
2021/09/14 03:32:57;;;;;;;23.20;10.65;;;;;;;12.50;77.82;100573.52;1638406;87;21187;-59
2021/09/14 03:35:31;;;;;;;29.52;11.55;;;;;;;12.58;77.71;100570.55;1639813;87;21207;-59
2021/09/14 03:38:04;;;;;;;53.55;26.25;;;;;;;12.68;77.53;100566.08;1638384;87;21321;-59
2021/09/14 03:40:39;;;;;;;113.28;53.38;;;;;;;12.85;77.41;100571.08;1639735;87;21187;-59
2021/09/14 03:43:13;;;;;;;105.60;47.75;;;;;;;13.09;76.76;100571.45;1638547;87;21318;-59
2021/09/14 03:45:48;;;;;;;92.62;40.28;;;;;;;13.27;76.32;100567.58;1639850;87;21215;-59
2021/09/14 03:48:22;;;;;;;77.00;32.42;;;;;;;13.40;75.79;100574.15;1638590;87;21212;-59
2021/09/14 03:50:56;;;;;;;44.85;15.98;;;;;;;13.48;75.32;100570.79;1639020;87;21208;-58
2021/09/14 03:53:30;;;;;;;27.67;12.10;;;;;;;13.59;75.01;100573.20;1638661;87;21242;-58
2021/09/14 03:56:04;;;;;;;23.90;9.30;;;;;;;13.69;74.47;100573.98;1640140;87;21274;-58
2021/09/14 03:58:39;;;;;;;21.73;9.55;;;;;;;13.78;74.03;100576.23;1638355;87;21486;-58
2021/09/14 04:01:14;;;;;;;24.67;10.75;;;;;;;13.89;73.57;100580.79;1638327;87;21173;-58
2021/09/14 04:04:04;;;;;;;25.00;11.03;;;;;;;14.09;73.15;100580.97;1638336;87;21738;-58
2021/09/14 04:09:24;;;;;;;31.27;12.20;;;;;;;15.15;71.31;100580.77;1638832;87;21298;-59
2021/09/14 04:11:59;;;;;;;37.98;14.85;;;;;;;15.86;69.70;100577.25;1639371;87;21321;-59
2021/09/14 04:14:33;;;;;;;34.05;16.15;;;;;;;16.63;67.61;100584.77;1616484;87;21219;-61
2021/09/14 04:17:10;;;;;;;34.70;16.37;;;;;;;17.38;65.02;100579.95;1638216;87;21171;-60
2021/09/14 04:19:44;;;;;;;44.10;19.75;;;;;;;18.07;63.11;100579.92;1639616;87;21286;-60
2021/09/14 04:22:17;;;;;;;40.95;20.43;;;;;;;18.79;60.82;100581.66;1639922;87;21192;-60
2021/09/14 04:24:51;;;;;;;50.05;22.25;;;;;;;19.40;58.57;100572.03;1640190;87;21278;-59
2021/09/14 04:27:26;;;;;;;53.90;25.27;;;;;;;20.04;56.56;100569.47;1638614;86;21208;-60
2021/09/14 04:29:59;;;;;;;52.55;26.87;;;;;;;20.65;54.64;100562.19;1639821;87;21216;-60
2021/09/14 04:32:35;;;;;;;42.55;19.60;;;;;;;21.25;52.39;100567.39;1639162;87;21192;-59
2021/09/14 04:35:11;;;;;;;48.78;23.90;;;;;;;21.70;50.35;100558.75;1638113;87;21381;-59
2021/09/14 04:37:44;;;;;;;50.10;25.12;;;;;;;22.13;48.98;100561.95;1638531;87;21789;-60
2021/09/14 04:40:18;;;;;;;48.05;22.50;;;;;;;22.55;47.51;100566.88;1637957;87;21188;-61
2021/09/14 04:42:51;;;;;;;48.52;22.05;;;;;;;23.02;46.22;100566.35;1638663;87;21203;-60
2021/09/14 04:45:25;;;;;;;38.88;16.25;;;;;;;23.45;45.28;100557.58;1638482;87;21230;-61
2021/09/14 04:47:59;;;;;;;30.88;13.88;;;;;;;23.94;43.82;100564.95;1638336;87;21238;-59
2021/09/14 04:50:33;;;;;;;26.07;11.05;;;;;;;24.33;42.51;100559.05;1615687;87;21219;-61
2021/09/14 04:53:07;;;;;;;32.88;12.50;;;;;;;24.66;41.68;100559.07;1616991;87;21231;-60
2021/09/14 04:55:40;;;;;;;;;;;;;;;25.03;40.74;100557.27;1601261;87;22634;-61
2021/09/14 04:58:15;;;;;;;25.25;12.53;;;;;;;25.28;40.30;100548.65;1591202;87;20265;-62
2021/09/14 05:00:48;;;;;;;;;;;;;;;25.65;39.63;100549.42;1603656;87;22780;-62
2021/09/14 05:03:23;;;;;;;37.53;13.15;;;;;;;26.14;39.17;100544.84;1596815;87;20298;-64
2021/09/14 05:05:58;;;;;;;31.23;11.75;;;;;;;26.56;37.81;100547.22;1602069;87;21887;-60
2021/09/14 05:08:34;;;;;;;29.12;10.90;;;;;;;26.89;37.38;100553.39;1583022;89;21233;-60
2021/09/14 05:11:09;;;;;;;22.87;8.60;;;;;;;27.29;36.33;100554.25;1600349;87;21223;-64
2021/09/14 05:13:43;;;;;;;21.33;8.18;;;;;;;27.59;35.46;100552.70;1608093;87;21203;-61
2021/09/14 05:16:18;;;;;;;24.77;8.20;;;;;;;27.80;34.62;100556.61;1604589;87;21839;-62
2021/09/14 05:18:55;;;;;;;20.77;7.20;;;;;;;28.12;34.23;100560.44;1597570;87;21234;-60
2021/09/14 05:21:33;;;;;;;18.02;6.83;;;;;;;28.60;33.53;100552.64;1608016;87;21226;-67
2021/09/14 05:24:08;;;;;;;22.48;7.67;;;;;;;29.03;32.31;100553.78;1608469;87;21309;-66
2021/09/14 05:26:44;;;;;;;20.57;6.90;;;;;;;29.25;31.71;100557.34;1607183;87;21204;-64
2021/09/14 05:29:16;;;;;;;;;;;;;;;29.58;31.36;100548.27;1624593;87;21300;-61
2021/09/14 05:31:49;;;;;;;26.23;7.08;;;;;;;29.89;30.66;100550.25;1623770;87;20257;-61
2021/09/14 05:34:23;;;;;;;18.65;6.92;;;;;;;30.09;30.44;100549.63;1637526;86;21393;-62
2021/09/14 05:36:57;;;;;;;19.82;6.62;;;;;;;30.41;30.18;100549.92;1637049;86;21802;-65
2021/09/14 05:39:31;;;;;;;22.07;7.60;;;;;;;30.81;29.63;100555.33;1635330;86;22639;-64
2021/09/14 05:42:12;;;;;;;15.80;6.55;;;;;;;31.23;29.02;100552.05;1634707;86;21211;-64
2021/09/14 05:44:40;;;;;;;18.15;7.03;;;;;;;31.60;28.49;100550.59;1636277;86;21303;-66
2021/09/14 05:47:13;;;;;;;26.50;11.75;;;;;;;31.95;28.02;100548.77;1639108;86;21341;-63
2021/09/14 05:49:46;;;;;;;;;;;;;;;32.43;27.46;100543.34;1621899;87;21766;-65
2021/09/14 05:52:23;;;;;;;22.17;7.03;;;;;;;32.86;26.73;100557.42;1625998;87;20707;-65
2021/09/14 05:55:00;;;;;;;23.15;7.03;;;;;;;33.17;26.40;100554.34;1616822;87;21232;-64
2021/09/14 05:57:33;;;;;;;15.80;7.35;;;;;;;33.63;25.83;100548.70;1635498;86;21904;-62
2021/09/14 06:00:09;;;;;;;16.52;6.92;;;;;;;34.04;24.96;100554.17;1631161;86;21373;-62
2021/09/14 06:02:45;;;;;;;20.80;8.90;;;;;;;34.42;24.60;100543.78;1635660;86;21370;-62
2021/09/14 06:05:19;;;;;;;23.57;9.53;;;;;;;34.70;24.09;100549.54;1635542;86;21251;-63
2021/09/14 06:07:52;;;;;;;20.30;10.05;;;;;;;34.96;23.61;100547.61;1637508;86;21323;-62
2021/09/14 06:10:26;;;;;;;19.82;9.93;;;;;;;35.18;23.30;100545.75;1616546;87;21840;-63
2021/09/14 06:13:07;;;;;;;26.50;13.10;;;;;;;35.35;23.12;100543.33;1611136;87;21185;-61
2021/09/14 06:15:42;;;;;;;24.15;13.15;;;;;;;35.61;22.73;100543.84;1617042;87;21830;-63
2021/09/14 06:18:16;;;;;;;26.55;15.53;;;;;;;35.93;22.48;100545.23;1620942;87;21300;-62
2021/09/14 06:20:49;;;;;;;23.62;15.23;;;;;;;36.19;22.21;100541.02;1620807;87;21184;-63
2021/09/14 06:23:22;;;;;;;24.98;14.33;;;;;;;36.71;21.80;100541.77;1590328;88;21342;-63
2021/09/14 06:25:56;;;;;;;32.40;15.85;;;;;;;37.21;21.18;100542.70;1614335;87;21268;-63
2021/09/14 06:28:31;;;;;;;32.58;16.67;;;;;;;37.53;20.86;100541.18;1600183;88;21399;-64
2021/09/14 06:31:05;;;;;;;29.67;18.50;;;;;;;37.91;20.71;100538.95;1612350;87;21223;-64
2021/09/14 06:33:38;;;;;;;29.48;18.42;;;;;;;38.36;20.21;100535.91;1612559;87;21318;-64
2021/09/14 06:36:11;;;;;;;35.90;19.95;;;;;;;38.79;19.58;100532.58;1612240;87;21334;-62
2021/09/14 06:38:46;;;;;;;31.23;19.42;;;;;;;38.96;19.21;100535.37;1638142;86;21326;-62
2021/09/14 06:41:21;;;;;;;29.15;19.52;;;;;;;38.81;19.27;100537.20;1607533;87;21213;-63
2021/09/14 06:43:54;;;;;;;31.87;20.25;;;;;;;38.95;19.17;100531.86;1614338;87;21371;-61
2021/09/14 06:46:29;;;;;;;29.72;19.32;;;;;;;39.16;19.04;100532.09;1602893;87;21209;-65
2021/09/14 06:49:04;;;;;;;34.67;23.65;;;;;;;39.36;18.95;100529.31;1637035;86;21321;-63
2021/09/14 06:51:37;;;;;;;33.60;23.52;;;;;;;39.54;18.69;100530.92;1622096;87;21207;-62
2021/09/14 06:54:11;;;;;;;99.03;67.45;;;;;;;39.65;18.51;100529.50;1623018;87;21273;-61
2021/09/14 06:56:44;;;;;;;99.58;71.95;;;;;;;39.82;18.49;100527.31;1642933;86;21881;-61
2021/09/14 06:59:17;;;;;;;101.20;77.72;;;;;;;40.08;18.29;100524.81;1638182;85;21366;-65
2021/09/14 07:01:51;;;;;;;68.97;48.55;;;;;;;40.27;18.01;100523.88;1636334;85;21420;-62
2021/09/14 07:04:26;;;;;;;88.67;60.78;;;;;;;40.31;17.74;100514.45;1631062;86;21348;-66
2021/09/14 07:07:00;;;;;;;38.98;23.75;;;;;;;40.46;17.68;100521.37;1616040;87;21865;-62
2021/09/14 07:09:36;;;;;;;50.17;32.63;;;;;;;40.77;17.60;100517.17;1619144;87;21729;-66
2021/09/14 07:12:10;;;;;;;32.23;20.08;;;;;;;41.05;17.49;100518.11;1620473;87;21740;-65
2021/09/14 07:14:44;;;;;;;29.45;18.00;;;;;;;41.35;17.00;100513.64;1638151;85;21381;-65
2021/09/14 07:17:17;;;;;;;34.25;19.17;;;;;;;41.53;16.77;100501.39;1635683;85;21249;-66
2021/09/14 07:19:51;;;;;;;31.57;18.30;;;;;;;41.52;16.97;100506.64;1619979;87;21187;-66
2021/09/14 07:22:25;;;;;;;29.70;18.05;;;;;;;41.64;16.71;100505.33;1619218;87;21261;-67
2021/09/14 07:24:58;;;;;;;28.23;17.23;;;;;;;41.92;16.30;100498.69;1636723;86;21216;-65
2021/09/14 07:27:32;;;;;;;27.82;17.32;;;;;;;41.97;15.96;100497.67;1637169;85;21362;-66
2021/09/14 07:30:06;;;;;;;28.32;17.27;;;;;;;41.92;16.04;100489.06;1634493;86;21229;-65
2021/09/14 07:32:39;;;;;;;24.00;16.55;;;;;;;42.00;16.01;100487.38;1636286;86;22425;-65
2021/09/14 07:35:14;;;;;;;27.00;14.90;;;;;;;42.20;15.94;100482.42;1635535;86;21774;-64
2021/09/14 07:37:47;;;;;;;22.32;14.07;;;;;;;42.46;15.58;100485.66;1622574;87;21344;-65
2021/09/14 07:40:21;;;;;;;22.10;12.50;;;;;;;42.52;15.30;100481.55;1594036;87;21284;-65
2021/09/14 07:42:55;;;;;;;25.82;12.63;;;;;;;42.59;15.28;100484.53;1607901;87;21883;-65
2021/09/14 07:45:28;;;;;;;25.90;12.20;;;;;;;42.83;15.30;100479.02;1615325;87;21487;-66
2021/09/14 07:48:01;;;;;;;27.98;11.95;;;;;;;43.05;15.12;100478.31;1616025;87;21974;-65
2021/09/14 07:50:34;;;;;;;20.55;11.75;;;;;;;43.37;14.79;100482.88;1612922;86;21338;-64
2021/09/14 07:53:07;;;;;;;31.90;10.58;;;;;;;43.51;14.27;100473.63;1620757;87;21335;-66
2021/09/14 07:55:40;;;;;;;16.87;8.18;;;;;;;43.66;14.00;100474.27;1621599;87;21353;-66
2021/09/14 07:58:14;;;;;;;20.00;9.10;;;;;;;43.96;13.70;100465.84;1636379;86;21200;-63
2021/09/14 08:00:48;;;;;;;20.72;7.80;;;;;;;44.34;13.29;100463.08;1644165;86;21509;-65
2021/09/14 08:03:24;;;;;;;21.55;7.90;;;;;;;44.59;12.68;100463.14;1622920;87;21272;-64
2021/09/14 08:05:57;;;;;;;14.13;7.35;;;;;;;44.69;12.42;100463.38;1619491;87;21198;-67
2021/09/14 08:08:30;;;;;;;11.65;5.95;;;;;;;44.81;12.29;100459.12;1620374;87;21331;-66
2021/09/14 08:11:04;;;;;;;14.43;7.12;;;;;;;44.98;11.94;100450.22;1619587;87;21613;-68
2021/09/14 08:13:39;;;;;;;13.60;6.95;;;;;;;45.04;11.92;100456.51;1610640;87;21203;-62
2021/09/14 08:16:12;;;;;;;12.75;5.40;;;;;;;45.06;11.82;100452.80;1611372;87;21284;-63
2021/09/14 08:18:46;;;;;;;13.08;5.08;;;;;;;45.08;11.68;100455.19;1621957;87;21877;-65
2021/09/14 08:21:21;;;;;;;15.65;5.45;;;;;;;45.17;11.57;100453.00;1621278;87;21246;-63
2021/09/14 08:23:56;;;;;;;12.70;6.20;;;;;;;45.11;11.56;100449.75;1633668;86;21244;-62
2021/09/14 08:26:29;;;;;;;13.75;5.78;;;;;;;45.08;11.78;100445.52;1634844;85;21236;-63
2021/09/14 08:29:07;;;;;;;13.43;5.62;;;;;;;44.88;11.63;100443.91;1620426;87;21332;-64
2021/09/14 08:31:42;;;;;;;13.25;5.70;;;;;;;44.11;12.05;100456.02;1621128;87;21379;-64
2021/09/14 08:34:20;;;;;;;13.62;6.20;;;;;;;42.97;12.82;100452.50;1633665;86;21782;-63
2021/09/14 08:36:53;;;;;;;13.40;5.05;;;;;;;41.90;13.75;100454.80;1634891;86;21312;-62
2021/09/14 08:39:28;;;;;;;14.28;5.80;;;;;;;40.83;14.44;100454.66;1646418;86;21169;-64
2021/09/14 08:42:04;;;;;;;13.62;5.83;;;;;;;39.91;15.18;100459.59;1613491;87;21223;-62
2021/09/14 08:44:42;;;;;;;15.53;5.62;;;;;;;39.59;15.74;100463.11;1621151;87;21379;-62
2021/09/14 08:47:16;;;;;;;17.70;6.45;;;;;;;39.69;15.59;100460.59;1593161;88;21199;-64
2021/09/14 08:49:50;;;;;;;13.50;6.25;;;;;;;39.85;15.58;100456.77;1641278;86;21334;-64
2021/09/14 08:52:24;;;;;;;11.53;4.95;;;;;;;40.05;15.39;100450.63;1645392;86;21318;-63
2021/09/14 08:54:57;;;;;;;14.15;5.37;;;;;;;40.44;15.14;100448.97;1642515;86;21211;-63
2021/09/14 08:57:31;;;;;;;13.80;6.00;;;;;;;40.87;14.92;100439.95;1641087;86;21266;-61
2021/09/14 09:00:07;;;;;;;8.48;5.50;;;;;;;40.91;14.57;100446.97;1637060;86;21302;-61
2021/09/14 09:02:40;;;;;;;9.95;5.35;;;;;;;40.52;14.29;100445.95;1620657;87;21342;-66
2021/09/14 09:05:14;;;;;;;12.15;5.70;;;;;;;40.01;14.83;100438.09;1625288;87;21221;-62
2021/09/14 09:07:50;;;;;;;15.20;5.90;;;;;;;39.83;15.08;100436.55;1639200;86;21212;-68
2021/09/14 09:10:25;;;;;;;10.23;6.33;;;;;;;39.62;15.21;100441.88;1637713;87;21358;-61
2021/09/14 09:13:04;;;;;;;13.78;7.00;;;;;;;39.27;15.42;100443.56;1643137;86;21771;-63
2021/09/14 09:15:34;;;;;;;11.10;6.00;;;;;;;39.01;15.68;100438.05;1638031;86;21561;-61
2021/09/14 09:18:13;;;;;;;11.25;7.00;;;;;;;39.00;15.65;100439.97;1640107;86;21211;-62
2021/09/14 09:20:48;;;;;;;11.38;7.12;;;;;;;39.19;15.90;100441.09;1603189;87;21331;-63
2021/09/14 09:23:26;;;;;;;10.50;7.35;;;;;;;39.32;15.55;100436.00;1636922;86;21409;-59
2021/09/14 09:26:08;;;;;;;9.08;6.60;;;;;;;39.27;15.27;100432.05;1607058;87;21318;-60
2021/09/14 09:28:45;;;;;;;10.53;6.28;;;;;;;39.15;15.48;100429.70;1620770;87;21361;-64
2021/09/14 09:31:21;;;;;;;18.20;7.20;;;;;;;38.92;15.60;100431.76;1591342;88;21854;-59
2021/09/14 09:34:06;;;;;;;13.53;7.20;;;;;;;38.71;15.88;100424.70;1637633;86;22650;-68
2021/09/14 09:36:43;;;;;;;12.25;6.55;;;;;;;38.11;16.27;100425.00;1619961;87;21312;-66
2021/09/14 09:39:16;;;;;;;11.43;6.72;;;;;;;37.42;16.73;100418.27;1608004;87;21238;-66
2021/09/14 09:41:55;;;;;;;9.48;6.72;;;;;;;37.06;17.09;100418.26;1621688;87;21335;-66
2021/09/14 09:44:28;;;;;;;12.60;6.92;;;;;;;36.73;17.10;100420.32;1612147;87;21304;-68
2021/09/14 09:47:03;;;;;;;14.20;7.10;;;;;;;36.22;17.52;100417.77;1620130;87;21342;-63
2021/09/14 09:49:36;;;;;;;11.73;6.90;;;;;;;35.92;17.88;100409.31;1624786;87;21334;-63
2021/09/14 09:52:13;;;;;;;11.88;6.67;;;;;;;35.87;18.13;100407.48;1617817;87;21801;-62
2021/09/14 09:54:50;;;;;;;14.15;6.80;;;;;;;35.60;18.66;100420.47;1620756;87;21355;-66
2021/09/14 09:57:23;;;;;;;23.67;8.40;;;;;;;35.15;18.88;100411.61;1618783;87;21334;-66
2021/09/14 09:59:58;;;;;;;13.93;7.47;;;;;;;34.57;19.18;100416.97;1616303;87;21885;-62
2021/09/14 10:02:33;;;;;;;15.28;7.08;;;;;;;33.99;19.89;100422.42;1621295;87;21788;-66
2021/09/14 10:05:10;;;;;;;14.23;7.85;;;;;;;33.45;20.73;100417.69;1620232;87;21358;-63
2021/09/14 10:07:47;;;;;;;18.57;7.78;;;;;;;33.15;21.15;100414.66;1638471;86;21263;-64
2021/09/14 10:10:20;;;;;;;14.83;7.50;;;;;;;33.02;21.35;100408.48;1643054;86;21184;-63
2021/09/14 10:13:00;;;;;;;15.80;7.78;;;;;;;32.94;21.64;100410.37;1640027;86;22561;-66
2021/09/14 10:15:46;;;;;;;14.73;7.37;;;;;;;32.77;21.00;100418.86;1642386;86;22509;-67
2021/09/14 10:18:27;;;;;;;26.20;8.65;;;;;;;32.48;21.21;100418.67;1609706;87;21192;-72
2021/09/14 10:21:05;;;;;;;12.73;7.42;;;;;;;32.15;21.78;100408.47;1610837;87;21673;-65
2021/09/14 10:23:41;;;;;;;11.78;7.08;;;;;;;31.77;22.26;100411.19;1613864;87;21317;-66
2021/09/14 10:26:16;;;;;;;18.65;8.53;;;;;;;31.41;22.90;100411.44;1609482;87;21329;-68
2021/09/14 10:28:52;;;;;;;14.65;7.55;;;;;;;31.19;23.25;100418.43;1603066;88;21286;-68
2021/09/14 10:31:36;;;;;;;13.68;8.05;;;;;;;31.14;23.19;100414.36;1613092;87;21209;-66
2021/09/14 10:34:07;;;;;;;11.22;7.95;;;;;;;31.18;23.09;100413.55;1638646;86;21339;-64
2021/09/14 10:36:42;;;;;;;11.80;7.25;;;;;;;31.20;22.89;100406.52;1617519;87;22015;-65
2021/09/14 10:39:23;;;;;;;11.93;8.15;;;;;;;31.30;22.83;100402.48;1641722;86;21312;-65
2021/09/14 10:41:56;;;;;;;14.03;7.80;;;;;;;31.34;22.70;100403.56;1646973;86;21216;-62
2021/09/14 10:44:34;;;;;;;11.45;7.62;;;;;;;31.31;23.07;100401.41;1614591;87;21761;-64
2021/09/14 10:47:18;;;;;;;14.47;8.60;;;;;;;31.15;23.15;100408.67;1614623;87;21759;-67
2021/09/14 10:49:58;;;;;;;13.18;8.33;;;;;;;30.98;23.69;100411.31;1638222;86;22080;-64
2021/09/14 10:52:37;;;;;;;26.77;8.53;;;;;;;30.90;23.89;100406.45;1645890;86;21203;-71
2021/09/14 10:55:21;;;;;;;11.73;7.33;;;;;;;30.80;23.44;100397.73;1612393;87;21346;-70
2021/09/14 10:58:01;;;;;;;18.95;7.92;;;;;;;30.70;23.12;100394.98;1612023;87;21357;-66
2021/09/14 11:00:36;;;;;;;14.45;8.10;;;;;;;30.54;23.00;100398.70;1612634;87;21267;-64
2021/09/14 11:03:14;;;;;;;19.12;8.43;;;;;;;30.34;23.63;100398.59;1613983;87;21337;-62
2021/09/14 11:05:53;;;;;;;24.87;9.10;;;;;;;30.15;23.91;100394.67;1640844;87;21193;-68
2021/09/14 11:08:28;;;;;;;15.45;9.38;;;;;;;29.95;24.15;100398.86;1637485;86;21736;-68
2021/09/14 11:11:02;;;;;;;13.93;8.63;;;;;;;29.81;24.29;100399.56;1642532;86;21761;-70
2021/09/14 11:13:36;;;;;;;11.08;7.87;;;;;;;29.68;24.52;100395.41;1614376;88;22862;-63
2021/09/14 11:16:14;;;;;;;9.88;8.10;;;;;;;29.63;24.40;100394.01;1612224;87;21714;-68
2021/09/14 11:18:47;;;;;;;12.37;7.83;;;;;;;29.60;24.51;100395.05;1596093;87;21370;-69
2021/09/14 11:21:23;;;;;;;17.80;8.08;;;;;;;29.54;24.42;100390.16;1616771;87;21252;-69
2021/09/14 11:23:57;;;;;;;13.13;8.35;;;;;;;29.50;24.49;100389.02;1619815;87;21493;-68
2021/09/14 11:26:32;;;;;;;16.73;8.50;;;;;;;29.47;24.63;100382.81;1613312;87;21338;-66
2021/09/14 11:29:08;;;;;;;15.72;7.85;;;;;;;29.45;24.72;100385.49;1618899;87;21264;-64
2021/09/14 11:31:43;;;;;;;15.70;8.15;;;;;;;29.37;24.97;100384.59;1640551;86;21265;-63
2021/09/14 11:34:20;;;;;;;15.38;9.15;;;;;;;29.32;25.36;100377.27;1637978;86;21343;-62
2021/09/14 11:36:51;;;;;;;17.57;9.03;;;;;;;29.32;25.58;100371.88;1618472;87;21296;-66
2021/09/14 11:39:24;;;;;;;12.90;8.90;;;;;;;29.38;25.49;100364.10;1621192;87;21347;-71
2021/09/14 11:42:00;;;;;;;20.02;8.38;;;;;;;29.45;25.15;100363.91;1645068;86;21265;-64
2021/09/14 11:44:34;;;;;;;9.43;6.97;;;;;;;29.42;24.77;100361.19;1615034;87;21371;-68
2021/09/14 11:47:08;;;;;;;;;;;;;;;29.33;24.47;100360.83;1613847;87;21338;-64
2021/09/14 11:49:42;;;;;;;10.80;7.50;;;;;;;29.26;24.52;100362.92;1618272;87;20305;-67
2021/09/14 11:52:18;;;;;;;10.23;8.00;;;;;;;29.25;24.59;100360.49;1591185;87;21320;-66
2021/09/14 11:54:54;;;;;;;14.43;7.55;;;;;;;29.35;24.32;100360.59;1615680;87;22231;-63
2021/09/14 11:57:30;;;;;;;17.17;8.45;;;;;;;29.45;24.35;100358.52;1644336;86;21350;-64
2021/09/14 12:00:14;;;;;;;10.88;8.18;;;;;;;29.55;24.44;100353.18;1640873;86;21845;-64
2021/09/14 12:02:53;;;;;;;12.97;8.40;;;;;;;29.63;24.13;100353.54;1639364;86;21817;-67
2021/09/14 12:05:26;;;;;;;19.65;8.98;;;;;;;29.67;24.00;100359.22;1632930;87;21359;-66
2021/09/14 12:08:09;;;;;;;16.85;8.98;;;;;;;29.62;24.48;100361.87;1639767;86;21253;-66
2021/09/14 12:10:49;;;;;;;13.53;8.40;;;;;;;29.52;24.94;100355.86;1609181;87;21315;-66
2021/09/14 12:13:21;;;;;;;20.48;7.92;;;;;;;29.42;25.16;100360.38;1626628;87;21227;-66
2021/09/14 12:16:05;;;;;;;12.37;7.92;;;;;;;29.33;25.28;100362.70;1619502;87;21288;-67
2021/09/14 12:18:42;;;;;;;13.25;7.60;;;;;;;29.28;25.47;100367.52;1634747;86;21291;-67
2021/09/14 12:21:16;;;;;;;14.98;7.97;;;;;;;29.25;25.59;100364.01;1618979;87;21254;-65
2021/09/14 12:23:51;;;;;;;15.90;7.20;;;;;;;29.24;25.74;100365.06;1620611;87;21334;-65
2021/09/14 12:26:40;;;;;;;9.90;7.05;;;;;;;29.20;25.63;100358.56;1637467;86;21369;-62
2021/09/14 12:29:14;;;;;;;12.65;7.58;;;;;;;29.13;25.56;100366.02;1615764;87;21184;-65
2021/09/14 12:31:53;;;;;;;13.75;7.87;;;;;;;29.07;26.21;100364.84;1623460;87;21385;-65
2021/09/14 12:34:24;;;;;;;15.90;9.58;;;;;;;29.04;26.83;100359.98;1632116;86;21650;-67
2021/09/14 12:36:57;;;;;;;11.65;7.95;;;;;;;29.04;27.15;100363.47;1636604;86;21846;-64
2021/09/14 12:39:35;;;;;;;17.60;10.80;;;;;;;29.06;27.37;100364.59;1639521;86;21209;-65
2021/09/14 12:42:08;;;;;;;14.60;8.83;;;;;;;29.05;27.41;100368.33;1638537;86;21338;-66
2021/09/14 12:44:47;;;;;;;12.43;8.35;;;;;;;29.05;27.50;100366.45;1641990;86;21357;-65
2021/09/14 12:47:22;;;;;;;;;;;;;;;29.06;27.82;100372.67;1616994;87;21354;-65
2021/09/14 12:49:55;;;;;;;20.72;7.37;;;;;;;29.00;27.96;100375.84;1628492;86;20298;-63
2021/09/14 12:52:30;;;;;;;11.03;6.83;;;;;;;28.95;28.23;100380.34;1616911;87;21185;-67